createdAt,value
2023-04-16T00:01:20.646Z,100.00
2023-04-16T00:03:48.330Z,100.00
2023-04-16T00:06:15.756Z,100.00
2023-04-16T00:08:43.693Z,100.00
2023-04-16T00:11:11.635Z,100.00
2023-04-16T00:13:38.747Z,100.00
2023-04-16T00:16:06.226Z,100.00
2023-04-16T00:18:33.677Z,100.00
2023-04-16T00:21:00.963Z,100.00
2023-04-16T00:23:28.089Z,100.00
2023-04-16T00:25:57.232Z,100.00
2023-04-16T00:28:24.445Z,100.00
2023-04-16T00:30:51.633Z,100.00
2023-04-16T00:33:19.083Z,100.00
2023-04-16T00:35:47.172Z,100.00
2023-04-16T00:38:15.854Z,100.00
2023-04-16T00:40:43.265Z,100.00
2023-04-16T00:43:10.524Z,100.00
2023-04-16T00:45:38.617Z,100.00
2023-04-16T00:48:06.160Z,100.00
2023-04-16T00:50:33.884Z,100.00
2023-04-16T00:53:01.790Z,100.00
2023-04-16T00:55:29.572Z,100.00
2023-04-16T00:57:56.725Z,100.00
2023-04-16T01:00:23.949Z,100.00
2023-04-16T01:02:51.507Z,100.00
2023-04-16T01:05:19.374Z,100.00
2023-04-16T01:07:46.510Z,100.00
2023-04-16T01:10:13.936Z,100.00
2023-04-16T01:12:41.105Z,100.00
2023-04-16T01:15:08.809Z,100.00
2023-04-16T01:17:36.256Z,100.00
2023-04-16T01:20:03.842Z,100.00
2023-04-16T01:22:30.930Z,100.00
2023-04-16T01:24:58.317Z,100.00
2023-04-16T01:27:25.373Z,100.00
2023-04-16T01:29:52.689Z,100.00
2023-04-16T01:32:20.702Z,100.00
2023-04-16T01:34:48.001Z,100.00
2023-04-16T01:37:20.841Z,100.00
2023-04-16T01:39:48.419Z,100.00
2023-04-16T01:42:15.672Z,100.00
2023-04-16T01:44:43.507Z,100.00
2023-04-16T01:47:10.872Z,100.00
2023-04-16T01:49:38.277Z,100.00
2023-04-16T01:52:05.417Z,100.00
2023-04-16T01:54:32.845Z,100.00
2023-04-16T01:56:59.837Z,100.00
2023-04-16T01:59:26.993Z,100.00
2023-04-16T02:01:54.551Z,100.00
2023-04-16T02:04:22.781Z,100.00
2023-04-16T02:06:50.285Z,100.00
2023-04-16T02:09:17.758Z,100.00
2023-04-16T02:11:45.147Z,100.00
2023-04-16T02:14:12.251Z,100.00
2023-04-16T02:16:39.443Z,100.00
2023-04-16T02:19:07.358Z,100.00
2023-04-16T02:21:35.612Z,100.00
2023-04-16T02:24:03.281Z,100.00
2023-04-16T02:26:30.688Z,100.00
2023-04-16T02:28:58.691Z,100.00
2023-04-16T02:31:28.528Z,100.00
2023-04-16T02:33:56.231Z,100.00
2023-04-16T02:36:23.869Z,100.00
2023-04-16T02:38:51.075Z,100.00
2023-04-16T02:41:18.224Z,100.00
2023-04-16T02:43:45.625Z,100.00
2023-04-16T02:46:12.765Z,100.00
2023-04-16T02:48:40.120Z,100.00
2023-04-16T02:51:07.771Z,100.00
2023-04-16T02:53:35.032Z,100.00
2023-04-16T02:56:02.474Z,100.00
2023-04-16T02:58:29.886Z,100.00
2023-04-16T03:00:57.110Z,100.00
2023-04-16T03:03:24.327Z,100.00
2023-04-16T03:05:51.967Z,100.00
2023-04-16T03:08:19.102Z,100.00
2023-04-16T03:10:46.354Z,100.00
2023-04-16T03:13:14.610Z,100.00
2023-04-16T03:15:41.757Z,100.00
2023-04-16T03:18:08.912Z,100.00
2023-04-16T03:20:36.380Z,100.00
2023-04-16T03:23:03.531Z,100.00
2023-04-16T03:25:30.596Z,100.00
2023-04-16T03:27:58.083Z,100.00
2023-04-16T03:30:25.363Z,100.00
2023-04-16T03:32:52.564Z,100.00
2023-04-16T03:35:21.125Z,100.00
2023-04-16T03:37:50.185Z,100.00
2023-04-16T03:40:17.964Z,100.00
2023-04-16T03:42:45.421Z,100.00
2023-04-16T03:45:12.553Z,100.00
2023-04-16T03:47:39.878Z,100.00
2023-04-16T03:50:08.018Z,100.00
2023-04-16T03:52:36.319Z,100.00
2023-04-16T03:55:04.103Z,100.00
2023-04-16T03:57:31.683Z,100.00
2023-04-16T04:00:00.509Z,100.00
2023-04-16T04:02:28.046Z,100.00
2023-04-16T04:04:55.736Z,100.00
2023-04-16T04:07:23.536Z,100.00
2023-04-16T04:09:52.214Z,100.00
2023-04-16T04:12:19.651Z,100.00
2023-04-16T04:14:47.345Z,100.00
2023-04-16T04:17:14.530Z,100.00
2023-04-16T04:19:47.112Z,100.00
2023-04-16T04:22:18.642Z,100.00
2023-04-16T04:24:46.063Z,100.00
2023-04-16T04:27:13.899Z,100.00
2023-04-16T04:29:40.975Z,100.00
2023-04-16T04:32:08.437Z,100.00
2023-04-16T04:34:35.739Z,100.00
2023-04-16T04:37:03.466Z,100.00
2023-04-16T04:39:31.052Z,100.00
2023-04-16T04:41:58.392Z,100.00
2023-04-16T04:44:25.478Z,100.00
2023-04-16T04:46:52.993Z,100.00
2023-04-16T04:49:20.273Z,100.00
2023-04-16T04:51:48.200Z,100.00
2023-04-16T04:54:15.759Z,100.00
2023-04-16T04:56:45.814Z,100.00
2023-04-16T04:59:14.151Z,100.00
2023-04-16T05:01:41.989Z,100.00
2023-04-16T05:04:09.209Z,100.00
2023-04-16T05:06:36.438Z,100.00
2023-04-16T05:09:03.968Z,100.00
2023-04-16T05:11:31.148Z,100.00
2023-04-16T05:13:58.241Z,100.00
2023-04-16T05:16:25.672Z,100.00
2023-04-16T05:18:52.859Z,100.00
2023-04-16T05:21:20.147Z,100.00
2023-04-16T05:23:47.757Z,100.00
2023-04-16T05:26:14.928Z,100.00
2023-04-16T05:28:42.046Z,100.00
2023-04-16T05:31:09.403Z,100.00
2023-04-16T05:33:36.447Z,100.00
2023-04-16T05:36:03.730Z,100.00
2023-04-16T05:38:31.087Z,100.00
2023-04-16T05:40:58.657Z,100.00
2023-04-16T05:43:25.735Z,100.00
2023-04-16T05:45:53.081Z,100.00
2023-04-16T05:48:20.252Z,100.00
2023-04-16T05:50:47.295Z,100.00
2023-04-16T05:53:14.623Z,100.00
2023-04-16T05:55:41.636Z,100.00
2023-04-16T05:58:08.698Z,100.00
2023-04-16T06:00:36.211Z,100.00
2023-04-16T06:03:04.144Z,100.00
2023-04-16T06:05:31.470Z,100.00
2023-04-16T06:07:58.553Z,100.00
2023-04-16T06:10:26.154Z,100.00
2023-04-16T06:12:53.390Z,100.00
2023-04-16T06:15:20.386Z,100.00
2023-04-16T06:17:47.731Z,100.00
2023-04-16T06:20:14.812Z,100.00
2023-04-16T06:22:41.940Z,100.00
2023-04-16T06:25:09.664Z,100.00
2023-04-16T06:27:37.176Z,100.00
2023-04-16T06:30:04.750Z,100.00
2023-04-16T06:32:32.141Z,100.00
2023-04-16T06:34:59.306Z,100.00
2023-04-16T06:37:26.333Z,99.99
2023-04-16T06:39:53.626Z,97.32
2023-04-16T06:42:20.823Z,96.12
2023-04-16T06:44:47.936Z,94.21
2023-04-16T06:47:16.202Z,92.11
2023-04-16T06:49:43.331Z,91.16
2023-04-16T06:52:10.724Z,90.27
2023-04-16T06:54:38.516Z,88.43
2023-04-16T06:57:05.598Z,89.92
2023-04-16T06:59:32.630Z,86.25
2023-04-16T07:02:00.138Z,85.46
2023-04-16T07:04:27.428Z,85.89
2023-04-16T07:06:54.605Z,85.32
2023-04-16T07:09:21.941Z,86.61
2023-04-16T07:11:49.031Z,86.65
2023-04-16T07:14:16.106Z,86.04
2023-04-16T07:16:43.476Z,84.60
2023-04-16T07:19:10.995Z,85.79
2023-04-16T07:21:38.195Z,83.96
2023-04-16T07:24:05.742Z,83.37
2023-04-16T07:26:32.786Z,80.93
2023-04-16T07:28:59.855Z,79.08
2023-04-16T07:31:27.353Z,76.99
2023-04-16T07:33:54.497Z,75.52
2023-04-16T07:36:21.545Z,71.65
2023-04-16T07:38:48.887Z,69.51
2023-04-16T07:41:16.060Z,67.31
2023-04-16T07:43:43.070Z,67.11
2023-04-16T07:46:10.389Z,68.15
2023-04-16T07:48:37.404Z,66.32
2023-04-16T07:51:04.519Z,64.42
2023-04-16T07:53:31.942Z,68.33
2023-04-16T07:55:59.034Z,69.02
2023-04-16T07:58:26.122Z,68.33
2023-04-16T08:00:53.701Z,67.55
2023-04-16T08:03:21.401Z,67.56
2023-04-16T08:05:48.692Z,68.66
2023-04-16T08:08:16.068Z,69.29
2023-04-16T08:10:43.507Z,70.70
2023-04-16T08:13:10.733Z,72.61
2023-04-16T08:15:37.866Z,72.45
2023-04-16T08:18:12.861Z,73.04
2023-04-16T08:20:40.192Z,75.56
2023-04-16T08:23:07.744Z,74.74
2023-04-16T08:25:35.768Z,73.03
2023-04-16T08:28:02.977Z,74.29
2023-04-16T08:30:30.696Z,71.34
2023-04-16T08:32:57.934Z,70.90
2023-04-16T08:35:25.276Z,70.58
2023-04-16T08:37:53.772Z,69.86
2023-04-16T08:40:21.280Z,69.31
2023-04-16T08:42:58.299Z,70.45
2023-04-16T08:45:27.269Z,68.52
2023-04-16T08:50:26.626Z,69.34
2023-04-16T08:53:04.433Z,68.74
2023-04-16T08:55:40.264Z,69.63
2023-04-16T08:58:29.659Z,68.77
2023-04-16T09:00:56.881Z,69.28
2023-04-16T09:03:24.520Z,67.48
2023-04-16T09:05:52.268Z,64.48
2023-04-16T09:08:20.283Z,68.93
2023-04-16T09:10:49.034Z,70.58
2023-04-16T09:13:20.312Z,64.00
2023-04-16T09:15:47.900Z,66.09
2023-04-16T09:18:14.942Z,60.38
2023-04-16T09:20:42.059Z,62.25
2023-04-16T09:23:11.045Z,62.27
2023-04-16T09:25:38.653Z,61.21
2023-04-16T09:28:05.809Z,59.03
2023-04-16T09:30:34.569Z,61.68
2023-04-16T09:33:24.439Z,62.27
2023-04-16T09:35:53.144Z,59.64
2023-04-16T09:38:21.188Z,60.52
2023-04-16T09:40:48.613Z,61.11
2023-04-16T09:43:18.292Z,58.86
2023-04-16T09:45:53.250Z,59.69
2023-04-16T09:48:31.574Z,60.08
2023-04-16T09:51:02.098Z,65.56
2023-04-16T09:53:31.381Z,64.34
2023-04-16T09:56:03.620Z,62.34
2023-04-16T09:58:31.591Z,63.72
2023-04-16T10:01:03.425Z,65.44
2023-04-16T10:03:32.309Z,63.68
2023-04-16T10:06:19.272Z,61.38
2023-04-16T10:08:49.963Z,60.00
2023-04-16T10:11:18.854Z,62.63
2023-04-16T10:13:46.576Z,62.59
2023-04-16T10:16:14.154Z,63.91
2023-04-16T10:18:43.211Z,62.96
2023-04-16T10:21:12.720Z,63.36
2023-04-16T10:23:40.391Z,63.27
2023-04-16T10:26:07.920Z,64.42
2023-04-16T10:28:35.771Z,64.36
2023-04-16T10:31:07.008Z,63.85
2023-04-16T10:33:40.832Z,65.16
2023-04-16T10:36:15.865Z,64.05
2023-04-16T10:38:47.860Z,62.00
2023-04-16T10:41:15.945Z,62.91
2023-04-16T10:43:47.732Z,61.75
2023-04-16T10:46:30.841Z,61.29
2023-04-16T10:49:01.961Z,62.41
2023-04-16T10:51:36.543Z,60.56
2023-04-16T10:54:20.398Z,60.10
2023-04-16T10:56:47.976Z,61.12
2023-04-16T10:59:19.894Z,58.80
2023-04-16T11:01:52.875Z,58.97
2023-04-16T11:04:20.081Z,57.75
2023-04-16T11:07:06.238Z,60.15
2023-04-16T11:09:42.231Z,57.82
2023-04-16T11:12:13.060Z,53.95
2023-04-16T11:14:46.958Z,54.07
2023-04-16T11:17:14.501Z,53.56
2023-04-16T11:19:42.863Z,55.36
2023-04-16T11:22:13.962Z,56.75
2023-04-16T11:24:41.346Z,54.20
2023-04-16T11:27:08.736Z,57.68
2023-04-16T11:29:36.039Z,54.52
2023-04-16T11:32:03.549Z,56.42
2023-04-16T11:34:30.997Z,55.17
2023-04-16T11:36:58.387Z,55.33
2023-04-16T11:39:25.923Z,55.37
2023-04-16T11:41:53.113Z,54.59
2023-04-16T11:44:25.389Z,54.52
2023-04-16T11:46:54.178Z,54.31
2023-04-16T11:49:30.788Z,53.70
2023-04-16T11:51:59.026Z,52.92
2023-04-16T11:54:26.117Z,55.54
2023-04-16T11:56:53.707Z,54.96
2023-04-16T11:59:23.278Z,50.98
2023-04-16T12:01:52.387Z,50.43
2023-04-16T12:04:22.501Z,52.31
2023-04-16T12:07:15.970Z,52.86
2023-04-16T12:09:44.052Z,51.86
2023-04-16T12:12:31.873Z,51.35
2023-04-16T12:15:03.579Z,51.95
2023-04-16T12:17:35.412Z,54.33
2023-04-16T12:20:08.395Z,54.25
2023-04-16T12:22:37.751Z,51.80
2023-04-16T12:25:12.032Z,51.90
2023-04-16T12:27:53.983Z,51.08
2023-04-16T12:30:23.330Z,51.92
2023-04-16T12:32:52.480Z,50.48
2023-04-16T12:35:33.983Z,53.53
2023-04-16T12:38:01.591Z,53.08
2023-04-16T12:40:28.794Z,54.87
2023-04-16T12:42:56.025Z,55.71
2023-04-16T12:45:24.438Z,54.52
2023-04-16T12:47:51.742Z,56.14
2023-04-16T12:50:18.978Z,56.38
2023-04-16T12:52:46.448Z,56.56
2023-04-16T12:55:14.329Z,55.87
2023-04-16T12:57:41.427Z,56.78
2023-04-16T13:00:11.458Z,58.09
2023-04-16T13:02:38.736Z,56.08
2023-04-16T13:05:06.410Z,51.57
2023-04-16T13:07:34.147Z,51.86
2023-04-16T13:10:01.368Z,51.11
2023-04-16T13:12:28.516Z,52.00
2023-04-16T13:14:56.068Z,50.06
2023-04-16T13:17:23.202Z,51.01
2023-04-16T13:19:50.388Z,49.93
2023-04-16T13:22:17.844Z,52.11
2023-04-16T13:24:44.956Z,50.32
2023-04-16T13:27:12.775Z,46.78
2023-04-16T13:29:40.274Z,50.66
2023-04-16T13:32:07.501Z,49.47
2023-04-16T13:34:34.622Z,49.40
2023-04-16T13:37:01.993Z,48.99
2023-04-16T13:39:29.100Z,52.54
2023-04-16T13:41:56.122Z,49.56
2023-04-16T13:44:23.490Z,49.42
2023-04-16T13:46:50.726Z,51.33
2023-04-16T13:49:17.794Z,49.21
2023-04-16T13:51:45.124Z,49.22
2023-04-16T13:54:12.114Z,49.99
2023-04-16T13:56:39.592Z,49.34
2023-04-16T13:59:07.168Z,50.44
2023-04-16T14:01:34.744Z,49.75
2023-04-16T14:04:06.426Z,50.93
2023-04-16T14:06:37.010Z,49.24
2023-04-16T14:09:04.517Z,49.58
2023-04-16T14:11:31.740Z,50.10
2023-04-16T14:13:58.904Z,48.22
2023-04-16T14:16:27.396Z,48.13
2023-04-16T14:18:54.622Z,48.39
2023-04-16T14:21:21.748Z,49.45
2023-04-16T14:23:49.725Z,51.10
2023-04-16T14:26:16.914Z,50.76
2023-04-16T14:28:44.472Z,49.67
2023-04-16T14:31:11.960Z,49.50
2023-04-16T14:33:39.268Z,49.54
2023-04-16T14:36:06.602Z,49.61
2023-04-16T14:38:34.035Z,49.09
2023-04-16T14:41:01.316Z,50.04
2023-04-16T14:43:28.450Z,52.46
2023-04-16T14:45:57.127Z,52.57
2023-04-16T14:48:24.384Z,52.36
2023-04-16T14:50:51.419Z,52.66
2023-04-16T14:53:19.803Z,56.33
2023-04-16T14:55:46.845Z,53.52
2023-04-16T14:58:13.952Z,52.97
2023-04-16T15:00:41.533Z,54.46
2023-04-16T15:03:12.114Z,53.18
2023-04-16T15:05:39.306Z,53.26
2023-04-16T15:08:07.249Z,53.93
2023-04-16T15:10:35.099Z,54.45
2023-04-16T15:13:02.178Z,53.87
2023-04-16T15:15:29.674Z,52.91
2023-04-16T15:17:57.781Z,54.79
2023-04-16T15:20:24.918Z,53.69
2023-04-16T15:22:53.883Z,54.01
2023-04-16T15:25:21.026Z,57.11
2023-04-16T15:27:48.121Z,54.83
2023-04-16T15:30:15.801Z,52.40
2023-04-16T15:32:44.612Z,54.11
2023-04-16T15:35:13.057Z,51.44
2023-04-16T15:37:40.911Z,51.93
2023-04-16T15:40:08.638Z,50.27
2023-04-16T15:42:35.737Z,51.98
2023-04-16T15:45:03.154Z,51.71
2023-04-16T15:47:30.541Z,52.97
2023-04-16T15:49:57.646Z,51.88
2023-04-16T15:52:25.021Z,51.93
2023-04-16T15:54:52.075Z,51.34
2023-04-16T15:57:19.440Z,50.18
2023-04-16T16:00:03.185Z,50.11
2023-04-16T16:02:34.140Z,51.30
2023-04-16T16:05:01.441Z,49.46
2023-04-16T16:07:28.590Z,50.01
2023-04-16T16:09:56.329Z,48.86
2023-04-16T16:12:23.508Z,50.24
2023-04-16T16:14:50.945Z,51.94
2023-04-16T16:17:20.327Z,49.14
2023-04-16T16:19:47.564Z,51.20
2023-04-16T16:22:16.026Z,51.49
2023-04-16T16:24:44.078Z,54.88
2023-04-16T16:27:11.200Z,57.46
2023-04-16T16:29:38.319Z,58.08
2023-04-16T16:32:06.044Z,59.71
2023-04-16T16:34:33.283Z,61.62
2023-04-16T16:37:00.589Z,61.71
2023-04-16T16:39:28.014Z,62.72
2023-04-16T16:41:55.105Z,63.18
2023-04-16T16:44:23.077Z,63.00
2023-04-16T16:46:51.386Z,64.28
2023-04-16T16:49:18.619Z,63.65
2023-04-16T16:51:49.023Z,65.08
2023-04-16T16:54:16.395Z,66.01
2023-04-16T16:56:43.551Z,67.43
2023-04-16T16:59:11.008Z,67.50
2023-04-16T17:01:38.864Z,69.48
2023-04-16T17:04:06.183Z,69.35
2023-04-16T17:06:34.181Z,70.11
2023-04-16T17:09:01.964Z,70.77
2023-04-16T17:11:29.364Z,72.38
2023-04-16T17:13:56.768Z,72.46
2023-04-16T17:16:24.266Z,72.87
2023-04-16T17:18:51.370Z,73.56
2023-04-16T17:21:18.538Z,73.49
2023-04-16T17:23:45.904Z,74.29
2023-04-16T17:26:12.994Z,74.72
2023-04-16T17:28:40.088Z,74.53
2023-04-16T17:31:08.517Z,75.14
2023-04-16T17:33:35.817Z,77.77
2023-04-16T17:36:03.032Z,79.78
2023-04-16T17:38:30.498Z,79.02
2023-04-16T17:40:58.113Z,79.67
2023-04-16T17:43:25.378Z,80.03
2023-04-16T17:45:52.796Z,80.63
2023-04-16T17:48:19.949Z,81.16
2023-04-16T17:50:47.161Z,82.30
2023-04-16T17:53:14.634Z,82.09
2023-04-16T17:55:50.688Z,83.58
2023-04-16T17:58:18.154Z,85.56
2023-04-16T18:00:45.883Z,84.91
2023-04-16T18:03:14.781Z,86.04
2023-04-16T18:05:41.998Z,87.43
2023-04-16T18:08:09.143Z,87.39
2023-04-16T18:10:38.707Z,88.03
2023-04-16T18:13:05.770Z,87.69
2023-04-16T18:15:36.999Z,87.92
2023-04-16T18:18:05.568Z,88.03
2023-04-16T18:20:32.844Z,88.73
2023-04-16T18:23:01.255Z,88.49
2023-04-16T18:25:34.294Z,89.80
2023-04-16T18:28:03.893Z,90.66
2023-04-16T18:30:31.458Z,89.42
2023-04-16T18:35:28.614Z,88.66
2023-04-16T18:37:56.093Z,88.61
2023-04-16T18:40:23.299Z,90.66
2023-04-16T18:42:50.640Z,89.26
2023-04-16T18:45:21.730Z,88.80
2023-04-16T18:47:51.346Z,89.22
2023-04-16T18:50:18.811Z,88.64
2023-04-16T18:52:45.916Z,89.13
2023-04-16T18:55:13.001Z,89.77
2023-04-16T18:57:40.395Z,88.74
2023-04-16T19:00:12.498Z,89.70
2023-04-16T19:02:40.168Z,88.49
2023-04-16T19:05:09.011Z,87.34
2023-04-16T19:07:37.059Z,87.37
2023-04-16T19:10:05.316Z,87.71
2023-04-16T19:12:32.732Z,87.00
2023-04-16T19:15:00.427Z,88.61
2023-04-16T19:17:27.569Z,87.99
2023-04-16T19:19:54.917Z,87.91
2023-04-16T19:22:22.080Z,87.56
2023-04-16T19:24:49.245Z,88.05
2023-04-16T19:27:16.788Z,87.25
2023-04-16T19:29:45.535Z,87.42
2023-04-16T19:32:14.048Z,89.71
2023-04-16T19:34:41.710Z,90.56
2023-04-16T19:37:08.816Z,90.95
2023-04-16T19:39:36.484Z,90.73
2023-04-16T19:42:04.212Z,90.61
2023-04-16T19:44:32.353Z,90.21
2023-04-16T19:46:59.868Z,90.02
2023-04-16T19:49:34.359Z,89.87
2023-04-16T19:52:01.752Z,90.37
2023-04-16T19:54:29.232Z,89.77
2023-04-16T19:56:57.084Z,89.80
2023-04-16T19:59:25.045Z,87.38
2023-04-16T20:01:52.163Z,88.60
2023-04-16T20:04:19.817Z,87.64
2023-04-16T20:06:46.995Z,87.42
2023-04-16T20:09:14.076Z,88.06
2023-04-16T20:11:41.451Z,88.28
2023-04-16T20:14:10.937Z,88.52
2023-04-16T20:16:38.721Z,89.47
2023-04-16T20:19:08.546Z,89.24
2023-04-16T20:21:36.182Z,88.79
2023-04-16T20:24:03.421Z,89.85
2023-04-16T20:26:34.146Z,90.35
2023-04-16T20:29:01.351Z,89.82
2023-04-16T20:31:29.240Z,89.30
2023-04-16T20:33:56.665Z,90.41
2023-04-16T20:36:23.743Z,89.00
2023-04-16T20:38:53.817Z,88.79
2023-04-16T20:41:22.507Z,88.66
2023-04-16T20:43:50.317Z,88.58
2023-04-16T20:46:17.795Z,87.98
2023-04-16T20:48:45.384Z,87.83
2023-04-16T20:51:13.051Z,88.40
2023-04-16T20:53:40.391Z,88.03
2023-04-16T20:56:09.185Z,87.81
2023-04-16T20:58:36.337Z,87.85
2023-04-16T21:01:04.787Z,89.10
2023-04-16T21:03:32.417Z,88.06
2023-04-16T21:06:01.833Z,87.45
2023-04-16T21:08:29.081Z,87.92
2023-04-16T21:10:56.366Z,87.97
2023-04-16T21:13:23.489Z,87.77
2023-04-16T21:15:50.760Z,88.09
2023-04-16T21:18:18.617Z,87.37
2023-04-16T21:20:46.584Z,86.22
2023-04-16T21:23:13.723Z,87.61
2023-04-16T21:25:41.170Z,87.09
2023-04-16T21:28:08.278Z,86.67
2023-04-16T21:30:35.412Z,86.19
2023-04-16T21:33:03.341Z,85.50
2023-04-16T21:35:33.603Z,84.64
2023-04-16T21:38:00.747Z,85.99
2023-04-16T21:40:28.190Z,85.26
2023-04-16T21:42:55.445Z,84.50
2023-04-16T21:45:22.907Z,84.29
2023-04-16T21:47:50.369Z,84.48
2023-04-16T21:50:17.674Z,85.16
2023-04-16T21:52:46.756Z,84.69
2023-04-16T21:55:14.726Z,84.02
2023-04-16T21:57:41.885Z,84.74
2023-04-16T22:00:13.712Z,84.85
2023-04-16T22:02:42.593Z,84.91
2023-04-16T22:05:11.379Z,84.17
2023-04-16T22:07:38.583Z,85.85
2023-04-16T22:10:06.810Z,84.82
2023-04-16T22:12:37.759Z,84.45
2023-04-16T22:15:06.157Z,84.30
2023-04-16T22:17:34.363Z,84.82
2023-04-16T22:20:04.890Z,83.85
2023-04-16T22:22:32.016Z,84.70
2023-04-16T22:24:59.520Z,85.07
2023-04-16T22:27:26.632Z,85.01
2023-04-16T22:29:53.854Z,85.34
2023-04-16T22:32:21.641Z,85.39
2023-04-16T22:34:48.816Z,85.43
2023-04-16T22:37:15.986Z,85.45
2023-04-16T22:39:43.429Z,84.70
2023-04-16T22:42:10.561Z,85.67
2023-04-16T22:44:37.890Z,85.25
2023-04-16T22:47:05.534Z,84.20
2023-04-16T22:49:33.168Z,84.72
2023-04-16T22:52:00.882Z,84.00
2023-04-16T22:54:29.532Z,83.93
2023-04-16T22:56:57.571Z,84.06
2023-04-16T22:59:25.277Z,84.45
2023-04-16T23:01:52.972Z,84.59
2023-04-16T23:04:20.421Z,84.74
2023-04-16T23:06:47.553Z,85.72
2023-04-16T23:09:14.982Z,85.71
2023-04-16T23:11:42.087Z,85.79
2023-04-16T23:14:09.688Z,86.50
2023-04-16T23:16:37.160Z,86.66
2023-04-16T23:19:04.229Z,87.42
2023-04-16T23:21:32.439Z,87.55
2023-04-16T23:24:00.070Z,87.94
2023-04-16T23:26:27.230Z,87.69
2023-04-16T23:28:54.231Z,87.59
2023-04-16T23:31:21.729Z,88.52
2023-04-16T23:33:48.846Z,87.73
2023-04-16T23:36:15.922Z,88.55
2023-04-16T23:38:43.439Z,88.71
2023-04-16T23:41:10.750Z,88.15
2023-04-16T23:43:40.103Z,88.01
2023-04-16T23:46:07.769Z,87.28
2023-04-16T23:48:34.960Z,87.15
2023-04-16T23:51:02.127Z,87.44
2023-04-16T23:53:29.693Z,87.09
2023-04-16T23:55:56.809Z,86.77
2023-04-16T23:58:24.332Z,87.90
